sensor_id;sensor_type;location;lat;lon;timestamp;P1;durP1;ratioP1;P2;durP2;ratioP2
36923;SDS011;22841;50.252;18.688;2022-08-01T00:00:45;12.40;;;6.38;;
36923;SDS011;22841;50.252;18.688;2022-08-01T00:03:11;6.68;;;5.68;;
36923;SDS011;22841;50.252;18.688;2022-08-01T00:05:37;15.60;;;6.47;;
36923;SDS011;22841;50.252;18.688;2022-08-01T00:08:04;8.75;;;6.32;;
36923;SDS011;22841;50.252;18.688;2022-08-01T00:10:30;12.20;;;6.60;;
36923;SDS011;22841;50.252;18.688;2022-08-01T00:12:56;10.07;;;6.30;;
36923;SDS011;22841;50.252;18.688;2022-08-01T00:15:22;9.10;;;5.88;;
36923;SDS011;22841;50.252;18.688;2022-08-01T00:17:48;7.70;;;5.90;;
36923;SDS011;22841;50.252;18.688;2022-08-01T00:20:14;8.80;;;5.05;;
36923;SDS011;22841;50.252;18.688;2022-08-01T00:22:40;10.95;;;5.47;;
36923;SDS011;22841;50.252;18.688;2022-08-01T00:25:06;7.95;;;5.28;;
36923;SDS011;22841;50.252;18.688;2022-08-01T00:27:32;5.07;;;4.55;;
36923;SDS011;22841;50.252;18.688;2022-08-01T00:29:59;5.68;;;4.50;;
36923;SDS011;22841;50.252;18.688;2022-08-01T00:32:25;6.85;;;5.45;;
36923;SDS011;22841;50.252;18.688;2022-08-01T00:34:51;8.35;;;5.53;;
36923;SDS011;22841;50.252;18.688;2022-08-01T00:37:17;8.32;;;5.50;;
36923;SDS011;22841;50.252;18.688;2022-08-01T00:39:43;6.30;;;5.68;;
36923;SDS011;22841;50.252;18.688;2022-08-01T00:42:10;15.23;;;6.03;;
36923;SDS011;22841;50.252;18.688;2022-08-01T00:44:36;6.47;;;5.45;;
36923;SDS011;22841;50.252;18.688;2022-08-01T00:47:03;13.05;;;6.93;;
36923;SDS011;22841;50.252;18.688;2022-08-01T00:49:30;7.68;;;5.25;;
36923;SDS011;22841;50.252;18.688;2022-08-01T00:51:56;7.53;;;5.00;;
36923;SDS011;22841;50.252;18.688;2022-08-01T00:54:25;12.63;;;5.97;;
36923;SDS011;22841;50.252;18.688;2022-08-01T00:56:52;6.97;;;5.43;;
36923;SDS011;22841;50.252;18.688;2022-08-01T00:59:20;11.10;;;5.03;;
36923;SDS011;22841;50.252;18.688;2022-08-01T01:01:49;15.10;;;5.32;;
36923;SDS011;22841;50.252;18.688;2022-08-01T01:04:16;10.23;;;5.35;;
36923;SDS011;22841;50.252;18.688;2022-08-01T01:06:51;6.25;;;5.10;;
36923;SDS011;22841;50.252;18.688;2022-08-01T01:10:00;7.97;;;5.28;;
36923;SDS011;22841;50.252;18.688;2022-08-01T01:15:28;7.80;;;4.97;;
36923;SDS011;22841;50.252;18.688;2022-08-01T01:18:03;13.10;;;5.40;;
36923;SDS011;22841;50.252;18.688;2022-08-01T01:20:51;10.48;;;5.07;;
36923;SDS011;22841;50.252;18.688;2022-08-01T01:23:44;14.95;;;5.65;;
36923;SDS011;22841;50.252;18.688;2022-08-01T01:29:11;9.32;;;5.60;;
36923;SDS011;22841;50.252;18.688;2022-08-01T01:31:48;20.90;;;6.38;;
36923;SDS011;22841;50.252;18.688;2022-08-01T01:34:18;15.07;;;6.95;;
36923;SDS011;22841;50.252;18.688;2022-08-01T01:36:47;18.95;;;6.38;;
36923;SDS011;22841;50.252;18.688;2022-08-01T01:39:15;9.38;;;7.53;;
36923;SDS011;22841;50.252;18.688;2022-08-01T01:41:43;11.35;;;6.93;;
36923;SDS011;22841;50.252;18.688;2022-08-01T01:44:10;11.90;;;7.72;;
36923;SDS011;22841;50.252;18.688;2022-08-01T01:46:37;10.60;;;7.30;;
36923;SDS011;22841;50.252;18.688;2022-08-01T01:49:04;29.00;;;8.30;;
36923;SDS011;22841;50.252;18.688;2022-08-01T01:51:35;12.00;;;8.00;;
36923;SDS011;22841;50.252;18.688;2022-08-01T01:54:02;12.95;;;7.65;;
36923;SDS011;22841;50.252;18.688;2022-08-01T01:56:30;10.57;;;7.68;;
36923;SDS011;22841;50.252;18.688;2022-08-01T01:58:57;18.05;;;8.25;;
36923;SDS011;22841;50.252;18.688;2022-08-01T02:01:27;9.65;;;7.90;;
36923;SDS011;22841;50.252;18.688;2022-08-01T02:03:56;22.35;;;7.65;;
36923;SDS011;22841;50.252;18.688;2022-08-01T02:06:23;14.27;;;8.70;;
36923;SDS011;22841;50.252;18.688;2022-08-01T02:08:53;13.88;;;7.80;;
36923;SDS011;22841;50.252;18.688;2022-08-01T02:11:20;18.30;;;7.80;;
36923;SDS011;22841;50.252;18.688;2022-08-01T02:13:49;9.98;;;7.25;;
36923;SDS011;22841;50.252;18.688;2022-08-01T02:16:17;13.55;;;6.90;;
36923;SDS011;22841;50.252;18.688;2022-08-01T02:18:46;12.80;;;7.88;;
36923;SDS011;22841;50.252;18.688;2022-08-01T02:21:13;12.98;;;8.15;;
36923;SDS011;22841;50.252;18.688;2022-08-01T02:23:45;14.13;;;7.32;;
36923;SDS011;22841;50.252;18.688;2022-08-01T02:26:13;19.08;;;7.50;;
36923;SDS011;22841;50.252;18.688;2022-08-01T02:28:47;16.40;;;8.15;;
36923;SDS011;22841;50.252;18.688;2022-08-01T02:31:17;12.82;;;7.97;;
36923;SDS011;22841;50.252;18.688;2022-08-01T02:33:50;14.15;;;10.05;;
36923;SDS011;22841;50.252;18.688;2022-08-01T02:36:21;12.18;;;10.18;;
36923;SDS011;22841;50.252;18.688;2022-08-01T02:38:51;17.75;;;12.13;;
36923;SDS011;22841;50.252;18.688;2022-08-01T02:41:22;16.73;;;12.23;;
36923;SDS011;22841;50.252;18.688;2022-08-01T02:43:51;13.80;;;11.43;;
36923;SDS011;22841;50.252;18.688;2022-08-01T02:46:52;17.42;;;12.95;;
36923;SDS011;22841;50.252;18.688;2022-08-01T02:49:15;21.42;;;15.02;;
36923;SDS011;22841;50.252;18.688;2022-08-01T02:51:44;37.47;;;17.23;;
36923;SDS011;22841;50.252;18.688;2022-08-01T02:54:12;26.38;;;17.60;;
36923;SDS011;22841;50.252;18.688;2022-08-01T02:56:41;26.65;;;15.30;;
36923;SDS011;22841;50.252;18.688;2022-08-01T02:59:12;20.75;;;15.80;;
36923;SDS011;22841;50.252;18.688;2022-08-01T03:01:42;24.45;;;15.98;;
36923;SDS011;22841;50.252;18.688;2022-08-01T03:04:10;23.23;;;17.08;;
36923;SDS011;22841;50.252;18.688;2022-08-01T03:06:38;19.10;;;15.00;;
36923;SDS011;22841;50.252;18.688;2022-08-01T03:09:05;20.38;;;15.88;;
36923;SDS011;22841;50.252;18.688;2022-08-01T03:11:33;26.65;;;18.85;;
36923;SDS011;22841;50.252;18.688;2022-08-01T03:14:02;27.00;;;18.13;;
36923;SDS011;22841;50.252;18.688;2022-08-01T03:16:31;23.58;;;15.85;;
36923;SDS011;22841;50.252;18.688;2022-08-01T03:19:00;27.42;;;18.65;;
36923;SDS011;22841;50.252;18.688;2022-08-01T03:21:28;27.65;;;17.70;;
36923;SDS011;22841;50.252;18.688;2022-08-01T03:23:56;25.70;;;17.13;;
36923;SDS011;22841;50.252;18.688;2022-08-01T03:26:26;18.60;;;15.13;;
36923;SDS011;22841;50.252;18.688;2022-08-01T03:28:58;22.00;;;15.35;;
36923;SDS011;22841;50.252;18.688;2022-08-01T03:31:35;18.25;;;14.23;;
36923;SDS011;22841;50.252;18.688;2022-08-01T03:34:03;26.77;;;14.07;;
36923;SDS011;22841;50.252;18.688;2022-08-01T03:36:31;17.80;;;13.80;;
36923;SDS011;22841;50.252;18.688;2022-08-01T03:39:00;23.23;;;15.05;;
36923;SDS011;22841;50.252;18.688;2022-08-01T03:41:32;18.75;;;14.65;;
36923;SDS011;22841;50.252;18.688;2022-08-01T03:44:13;21.15;;;14.45;;
36923;SDS011;22841;50.252;18.688;2022-08-01T03:46:48;21.85;;;15.05;;
36923;SDS011;22841;50.252;18.688;2022-08-01T03:49:23;26.58;;;14.55;;
36923;SDS011;22841;50.252;18.688;2022-08-01T03:51:51;26.80;;;15.77;;
36923;SDS011;22841;50.252;18.688;2022-08-01T03:54:21;22.90;;;16.33;;
36923;SDS011;22841;50.252;18.688;2022-08-01T03:56:50;18.65;;;15.25;;
36923;SDS011;22841;50.252;18.688;2022-08-01T03:59:18;30.75;;;17.27;;
36923;SDS011;22841;50.252;18.688;2022-08-01T04:01:45;21.70;;;16.40;;
36923;SDS011;22841;50.252;18.688;2022-08-01T04:04:13;24.77;;;14.85;;
36923;SDS011;22841;50.252;18.688;2022-08-01T04:06:39;24.90;;;14.82;;
36923;SDS011;22841;50.252;18.688;2022-08-01T04:09:07;20.38;;;15.32;;
36923;SDS011;22841;50.252;18.688;2022-08-01T04:11:33;19.38;;;15.00;;
36923;SDS011;22841;50.252;18.688;2022-08-01T04:13:59;19.67;;;14.45;;
36923;SDS011;22841;50.252;18.688;2022-08-01T04:16:25;20.83;;;15.75;;
36923;SDS011;22841;50.252;18.688;2022-08-01T04:18:51;26.05;;;16.23;;
36923;SDS011;22841;50.252;18.688;2022-08-01T04:21:18;23.25;;;15.57;;
36923;SDS011;22841;50.252;18.688;2022-08-01T04:23:48;22.40;;;15.52;;
36923;SDS011;22841;50.252;18.688;2022-08-01T04:26:17;17.05;;;14.73;;
36923;SDS011;22841;50.252;18.688;2022-08-01T04:28:45;26.05;;;15.15;;
36923;SDS011;22841;50.252;18.688;2022-08-01T04:31:15;27.52;;;16.30;;
36923;SDS011;22841;50.252;18.688;2022-08-01T04:33:43;25.27;;;14.68;;
36923;SDS011;22841;50.252;18.688;2022-08-01T04:36:15;26.92;;;14.95;;
36923;SDS011;22841;50.252;18.688;2022-08-01T04:38:45;21.70;;;15.00;;
36923;SDS011;22841;50.252;18.688;2022-08-01T04:41:15;23.58;;;14.73;;
36923;SDS011;22841;50.252;18.688;2022-08-01T04:43:43;19.17;;;14.45;;
36923;SDS011;22841;50.252;18.688;2022-08-01T04:46:09;21.63;;;14.57;;
36923;SDS011;22841;50.252;18.688;2022-08-01T04:48:38;24.90;;;14.80;;
36923;SDS011;22841;50.252;18.688;2022-08-01T04:51:10;26.05;;;16.42;;
36923;SDS011;22841;50.252;18.688;2022-08-01T04:53:38;27.13;;;15.40;;
36923;SDS011;22841;50.252;18.688;2022-08-01T04:56:04;33.35;;;15.30;;
36923;SDS011;22841;50.252;18.688;2022-08-01T04:58:31;24.02;;;16.33;;
36923;SDS011;22841;50.252;18.688;2022-08-01T05:00:57;26.83;;;16.30;;
36923;SDS011;22841;50.252;18.688;2022-08-01T05:03:23;18.98;;;15.27;;
36923;SDS011;22841;50.252;18.688;2022-08-01T05:05:49;20.02;;;15.93;;
36923;SDS011;22841;50.252;18.688;2022-08-01T05:08:15;27.73;;;15.80;;
36923;SDS011;22841;50.252;18.688;2022-08-01T05:10:41;22.15;;;14.98;;
36923;SDS011;22841;50.252;18.688;2022-08-01T05:13:08;23.55;;;15.85;;
36923;SDS011;22841;50.252;18.688;2022-08-01T05:15:35;27.08;;;18.63;;
36923;SDS011;22841;50.252;18.688;2022-08-01T05:18:04;20.85;;;16.55;;
36923;SDS011;22841;50.252;18.688;2022-08-01T05:20:30;29.85;;;18.48;;
36923;SDS011;22841;50.252;18.688;2022-08-01T05:22:57;22.25;;;14.77;;
36923;SDS011;22841;50.252;18.688;2022-08-01T05:25:23;20.15;;;13.15;;
36923;SDS011;22841;50.252;18.688;2022-08-01T05:27:49;21.80;;;13.85;;
36923;SDS011;22841;50.252;18.688;2022-08-01T05:30:15;32.55;;;21.45;;
36923;SDS011;22841;50.252;18.688;2022-08-01T05:32:42;33.53;;;24.85;;
36923;SDS011;22841;50.252;18.688;2022-08-01T05:35:08;43.10;;;31.80;;
36923;SDS011;22841;50.252;18.688;2022-08-01T05:37:35;35.95;;;28.85;;
36923;SDS011;22841;50.252;18.688;2022-08-01T05:40:01;43.00;;;26.08;;
36923;SDS011;22841;50.252;18.688;2022-08-01T05:42:27;39.22;;;24.70;;
36923;SDS011;22841;50.252;18.688;2022-08-01T05:44:53;32.72;;;21.10;;
36923;SDS011;22841;50.252;18.688;2022-08-01T05:47:19;26.40;;;19.15;;
36923;SDS011;22841;50.252;18.688;2022-08-01T05:49:45;29.17;;;15.82;;
36923;SDS011;22841;50.252;18.688;2022-08-01T05:52:11;17.33;;;10.60;;
36923;SDS011;22841;50.252;18.688;2022-08-01T05:54:38;11.95;;;9.40;;
36923;SDS011;22841;50.252;18.688;2022-08-01T05:57:04;13.30;;;9.50;;
36923;SDS011;22841;50.252;18.688;2022-08-01T05:59:31;13.18;;;8.05;;
36923;SDS011;22841;50.252;18.688;2022-08-01T06:01:57;8.68;;;7.15;;
36923;SDS011;22841;50.252;18.688;2022-08-01T06:04:23;12.73;;;7.53;;
36923;SDS011;22841;50.252;18.688;2022-08-01T06:06:49;10.40;;;6.95;;
36923;SDS011;22841;50.252;18.688;2022-08-01T06:09:15;13.60;;;7.35;;
36923;SDS011;22841;50.252;18.688;2022-08-01T06:11:41;9.90;;;7.47;;
36923;SDS011;22841;50.252;18.688;2022-08-01T06:14:08;12.75;;;7.13;;
36923;SDS011;22841;50.252;18.688;2022-08-01T06:16:37;10.05;;;7.05;;
36923;SDS011;22841;50.252;18.688;2022-08-01T06:19:03;15.93;;;8.07;;
36923;SDS011;22841;50.252;18.688;2022-08-01T06:21:29;8.60;;;6.72;;
36923;SDS011;22841;50.252;18.688;2022-08-01T06:23:55;10.80;;;7.05;;
36923;SDS011;22841;50.252;18.688;2022-08-01T06:26:21;12.77;;;7.38;;
36923;SDS011;22841;50.252;18.688;2022-08-01T06:28:47;14.60;;;7.00;;
36923;SDS011;22841;50.252;18.688;2022-08-01T06:31:15;13.73;;;6.95;;
36923;SDS011;22841;50.252;18.688;2022-08-01T06:33:41;11.38;;;6.40;;
36923;SDS011;22841;50.252;18.688;2022-08-01T06:36:07;11.75;;;6.50;;
36923;SDS011;22841;50.252;18.688;2022-08-01T06:38:34;8.90;;;5.13;;
36923;SDS011;22841;50.252;18.688;2022-08-01T06:41:00;9.63;;;6.07;;
36923;SDS011;22841;50.252;18.688;2022-08-01T06:43:26;10.82;;;6.22;;
36923;SDS011;22841;50.252;18.688;2022-08-01T06:45:52;17.08;;;5.55;;
36923;SDS011;22841;50.252;18.688;2022-08-01T06:48:18;8.00;;;5.30;;
36923;SDS011;22841;50.252;18.688;2022-08-01T06:50:45;9.90;;;5.45;;
36923;SDS011;22841;50.252;18.688;2022-08-01T06:53:11;9.18;;;5.70;;
36923;SDS011;22841;50.252;18.688;2022-08-01T06:55:37;13.80;;;5.32;;
36923;SDS011;22841;50.252;18.688;2022-08-01T06:58:04;7.45;;;4.90;;
36923;SDS011;22841;50.252;18.688;2022-08-01T07:00:30;8.80;;;4.90;;
36923;SDS011;22841;50.252;18.688;2022-08-01T07:02:56;10.57;;;4.70;;
36923;SDS011;22841;50.252;18.688;2022-08-01T07:05:24;5.35;;;4.40;;
36923;SDS011;22841;50.252;18.688;2022-08-01T07:07:50;5.88;;;4.20;;
36923;SDS011;22841;50.252;18.688;2022-08-01T07:10:16;8.95;;;4.53;;
36923;SDS011;22841;50.252;18.688;2022-08-01T07:12:43;8.90;;;4.20;;
36923;SDS011;22841;50.252;18.688;2022-08-01T07:15:09;6.50;;;4.50;;
36923;SDS011;22841;50.252;18.688;2022-08-01T07:17:37;5.80;;;4.65;;
36923;SDS011;22841;50.252;18.688;2022-08-01T07:20:04;8.82;;;4.53;;
36923;SDS011;22841;50.252;18.688;2022-08-01T07:22:32;12.07;;;5.15;;
36923;SDS011;22841;50.252;18.688;2022-08-01T07:24:58;11.27;;;4.60;;
36923;SDS011;22841;50.252;18.688;2022-08-01T07:27:24;6.03;;;4.10;;
36923;SDS011;22841;50.252;18.688;2022-08-01T07:29:50;6.57;;;4.45;;
36923;SDS011;22841;50.252;18.688;2022-08-01T07:32:16;5.65;;;3.83;;
36923;SDS011;22841;50.252;18.688;2022-08-01T07:34:42;9.90;;;4.15;;
36923;SDS011;22841;50.252;18.688;2022-08-01T07:37:08;9.30;;;3.88;;
36923;SDS011;22841;50.252;18.688;2022-08-01T07:39:34;6.90;;;4.05;;
36923;SDS011;22841;50.252;18.688;2022-08-01T07:42:00;5.55;;;3.85;;
36923;SDS011;22841;50.252;18.688;2022-08-01T07:44:26;7.30;;;4.28;;
36923;SDS011;22841;50.252;18.688;2022-08-01T07:46:52;10.68;;;4.05;;
36923;SDS011;22841;50.252;18.688;2022-08-01T07:49:18;6.38;;;4.03;;
36923;SDS011;22841;50.252;18.688;2022-08-01T07:51:44;7.30;;;3.92;;
36923;SDS011;22841;50.252;18.688;2022-08-01T07:54:10;10.18;;;3.95;;
36923;SDS011;22841;50.252;18.688;2022-08-01T07:56:36;14.93;;;4.00;;
36923;SDS011;22841;50.252;18.688;2022-08-01T07:59:02;6.55;;;3.67;;
36923;SDS011;22841;50.252;18.688;2022-08-01T08:01:30;9.35;;;4.22;;
36923;SDS011;22841;50.252;18.688;2022-08-01T08:03:56;14.75;;;4.03;;
36923;SDS011;22841;50.252;18.688;2022-08-01T08:06:22;4.88;;;3.47;;
36923;SDS011;22841;50.252;18.688;2022-08-01T08:08:48;9.73;;;3.55;;
36923;SDS011;22841;50.252;18.688;2022-08-01T08:11:14;3.88;;;3.30;;
36923;SDS011;22841;50.252;18.688;2022-08-01T08:13:40;8.63;;;3.30;;
36923;SDS011;22841;50.252;18.688;2022-08-01T08:16:06;9.20;;;3.65;;
36923;SDS011;22841;50.252;18.688;2022-08-01T08:18:32;6.32;;;3.13;;
36923;SDS011;22841;50.252;18.688;2022-08-01T08:20:59;7.32;;;3.83;;
36923;SDS011;22841;50.252;18.688;2022-08-01T08:23:25;8.25;;;3.45;;
36923;SDS011;22841;50.252;18.688;2022-08-01T08:26:10;7.57;;;3.63;;
36923;SDS011;22841;50.252;18.688;2022-08-01T08:28:37;6.97;;;3.45;;
36923;SDS011;22841;50.252;18.688;2022-08-01T08:31:03;5.55;;;3.38;;
36923;SDS011;22841;50.252;18.688;2022-08-01T08:33:29;6.07;;;3.28;;
36923;SDS011;22841;50.252;18.688;2022-08-01T08:35:55;7.18;;;3.33;;
36923;SDS011;22841;50.252;18.688;2022-08-01T08:38:21;5.93;;;3.13;;
36923;SDS011;22841;50.252;18.688;2022-08-01T08:40:47;4.68;;;3.45;;
36923;SDS011;22841;50.252;18.688;2022-08-01T08:43:13;6.85;;;3.50;;
36923;SDS011;22841;50.252;18.688;2022-08-01T08:45:41;11.48;;;3.75;;
36923;SDS011;22841;50.252;18.688;2022-08-01T08:48:09;4.75;;;3.50;;
36923;SDS011;22841;50.252;18.688;2022-08-01T08:50:35;9.13;;;4.10;;
36923;SDS011;22841;50.252;18.688;2022-08-01T08:53:02;12.80;;;4.18;;
36923;SDS011;22841;50.252;18.688;2022-08-01T08:55:29;5.97;;;3.60;;
36923;SDS011;22841;50.252;18.688;2022-08-01T08:57:55;6.15;;;4.18;;
36923;SDS011;22841;50.252;18.688;2022-08-01T09:00:22;8.07;;;3.90;;
36923;SDS011;22841;50.252;18.688;2022-08-01T09:02:49;7.70;;;3.80;;
36923;SDS011;22841;50.252;18.688;2022-08-01T09:05:17;6.65;;;4.65;;
36923;SDS011;22841;50.252;18.688;2022-08-01T09:07:51;8.50;;;3.70;;
36923;SDS011;22841;50.252;18.688;2022-08-01T09:10:18;11.20;;;4.28;;
36923;SDS011;22841;50.252;18.688;2022-08-01T09:15:39;7.70;;;4.28;;
36923;SDS011;22841;50.252;18.688;2022-08-01T09:18:06;12.60;;;4.90;;
36923;SDS011;22841;50.252;18.688;2022-08-01T09:20:32;9.55;;;5.10;;
36923;SDS011;22841;50.252;18.688;2022-08-01T09:23:02;9.30;;;5.05;;
36923;SDS011;22841;50.252;18.688;2022-08-01T09:25:29;9.60;;;4.80;;
36923;SDS011;22841;50.252;18.688;2022-08-01T09:28:03;9.77;;;5.07;;
36923;SDS011;22841;50.252;18.688;2022-08-01T09:30:36;13.32;;;5.47;;
36923;SDS011;22841;50.252;18.688;2022-08-01T09:33:05;7.85;;;5.47;;
36923;SDS011;22841;50.252;18.688;2022-08-01T09:35:34;16.35;;;5.63;;
36923;SDS011;22841;50.252;18.688;2022-08-01T09:38:12;13.40;;;6.32;;
36923;SDS011;22841;50.252;18.688;2022-08-01T09:43:20;17.45;;;6.20;;
36923;SDS011;22841;50.252;18.688;2022-08-01T09:45:49;11.30;;;5.85;;
36923;SDS011;22841;50.252;18.688;2022-08-01T09:48:16;15.65;;;5.63;;
36923;SDS011;22841;50.252;18.688;2022-08-01T09:50:46;9.35;;;5.32;;
36923;SDS011;22841;50.252;18.688;2022-08-01T09:53:13;5.82;;;4.45;;
36923;SDS011;22841;50.252;18.688;2022-08-01T09:55:40;10.43;;;4.75;;
36923;SDS011;22841;50.252;18.688;2022-08-01T09:58:07;6.95;;;4.57;;
36923;SDS011;22841;50.252;18.688;2022-08-01T10:00:34;13.20;;;4.97;;
36923;SDS011;22841;50.252;18.688;2022-08-01T10:06:20;5.55;;;4.97;;
36923;SDS011;22841;50.252;18.688;2022-08-01T10:08:48;5.55;;;4.63;;
36923;SDS011;22841;50.252;18.688;2022-08-01T10:11:14;9.48;;;5.00;;
36923;SDS011;22841;50.252;18.688;2022-08-01T10:13:40;6.80;;;4.70;;
36923;SDS011;22841;50.252;18.688;2022-08-01T10:16:06;8.20;;;4.97;;
36923;SDS011;22841;50.252;18.688;2022-08-01T10:18:34;5.80;;;4.78;;
36923;SDS011;22841;50.252;18.688;2022-08-01T10:21:01;7.07;;;5.05;;
36923;SDS011;22841;50.252;18.688;2022-08-01T10:23:30;7.00;;;4.90;;
36923;SDS011;22841;50.252;18.688;2022-08-01T10:26:00;6.72;;;5.40;;
36923;SDS011;22841;50.252;18.688;2022-08-01T10:28:27;7.80;;;5.40;;
36923;SDS011;22841;50.252;18.688;2022-08-01T10:30:56;5.00;;;4.50;;
36923;SDS011;22841;50.252;18.688;2022-08-01T10:33:23;8.25;;;5.35;;
36923;SDS011;22841;50.252;18.688;2022-08-01T10:35:50;11.25;;;5.38;;
36923;SDS011;22841;50.252;18.688;2022-08-01T10:38:17;6.63;;;4.82;;
36923;SDS011;22841;50.252;18.688;2022-08-01T10:40:43;7.82;;;5.28;;
36923;SDS011;22841;50.252;18.688;2022-08-01T10:43:10;8.57;;;5.38;;
36923;SDS011;22841;50.252;18.688;2022-08-01T10:45:37;9.73;;;5.80;;
36923;SDS011;22841;50.252;18.688;2022-08-01T10:48:06;8.68;;;5.13;;
36923;SDS011;22841;50.252;18.688;2022-08-01T10:50:42;10.45;;;5.60;;
36923;SDS011;22841;50.252;18.688;2022-08-01T10:53:15;7.80;;;5.53;;
36923;SDS011;22841;50.252;18.688;2022-08-01T10:56:17;5.00;;;4.50;;
36923;SDS011;22841;50.252;18.688;2022-08-01T10:58:36;6.82;;;5.35;;
36923;SDS011;22841;50.252;18.688;2022-08-01T11:01:23;14.38;;;5.57;;
36923;SDS011;22841;50.252;18.688;2022-08-01T11:09:02;7.70;;;5.22;;
36923;SDS011;22841;50.252;18.688;2022-08-01T11:11:56;9.85;;;5.13;;
36923;SDS011;22841;50.252;18.688;2022-08-01T11:14:24;5.20;;;4.50;;
36923;SDS011;22841;50.252;18.688;2022-08-01T11:16:50;9.85;;;5.38;;
36923;SDS011;22841;50.252;18.688;2022-08-01T11:19:16;9.13;;;5.05;;
36923;SDS011;22841;50.252;18.688;2022-08-01T11:27:22;11.15;;;5.45;;
36923;SDS011;22841;50.252;18.688;2022-08-01T11:35:16;7.03;;;4.50;;
36923;SDS011;22841;50.252;18.688;2022-08-01T11:37:43;8.93;;;5.20;;
36923;SDS011;22841;50.252;18.688;2022-08-01T11:40:28;9.40;;;4.88;;
36923;SDS011;22841;50.252;18.688;2022-08-01T11:45:52;6.28;;;4.88;;
36923;SDS011;22841;50.252;18.688;2022-08-01T11:48:22;7.20;;;5.10;;
36923;SDS011;22841;50.252;18.688;2022-08-01T11:50:53;6.30;;;5.15;;
36923;SDS011;22841;50.252;18.688;2022-08-01T11:53:20;10.13;;;4.95;;
36923;SDS011;22841;50.252;18.688;2022-08-01T11:55:47;11.20;;;5.10;;
36923;SDS011;22841;50.252;18.688;2022-08-01T11:58:21;15.48;;;5.28;;
36923;SDS011;22841;50.252;18.688;2022-08-01T12:00:50;10.02;;;5.13;;
36923;SDS011;22841;50.252;18.688;2022-08-01T12:03:22;7.38;;;4.32;;
36923;SDS011;22841;50.252;18.688;2022-08-01T12:05:54;8.32;;;4.75;;
36923;SDS011;22841;50.252;18.688;2022-08-01T12:08:25;7.25;;;4.53;;
36923;SDS011;22841;50.252;18.688;2022-08-01T12:11:03;5.05;;;4.22;;
36923;SDS011;22841;50.252;18.688;2022-08-01T12:13:42;8.90;;;4.38;;
36923;SDS011;22841;50.252;18.688;2022-08-01T12:16:10;6.00;;;4.72;;
36923;SDS011;22841;50.252;18.688;2022-08-01T12:18:40;5.25;;;4.55;;
36923;SDS011;22841;50.252;18.688;2022-08-01T12:21:07;7.65;;;4.97;;
36923;SDS011;22841;50.252;18.688;2022-08-01T12:23:33;7.93;;;3.75;;
36923;SDS011;22841;50.252;18.688;2022-08-01T12:25:59;4.40;;;3.60;;
36923;SDS011;22841;50.252;18.688;2022-08-01T12:28:26;7.90;;;4.03;;
36923;SDS011;22841;50.252;18.688;2022-08-01T12:30:53;5.82;;;3.50;;
36923;SDS011;22841;50.252;18.688;2022-08-01T12:33:19;6.75;;;3.58;;
36923;SDS011;22841;50.252;18.688;2022-08-01T12:35:46;3.33;;;3.03;;
36923;SDS011;22841;50.252;18.688;2022-08-01T12:38:14;3.58;;;3.20;;
36923;SDS011;22841;50.252;18.688;2022-08-01T12:40:46;5.05;;;3.08;;
36923;SDS011;22841;50.252;18.688;2022-08-01T12:43:17;4.32;;;3.65;;
36923;SDS011;22841;50.252;18.688;2022-08-01T12:45:45;4.97;;;2.92;;
36923;SDS011;22841;50.252;18.688;2022-08-01T12:48:14;7.97;;;3.60;;
36923;SDS011;22841;50.252;18.688;2022-08-01T12:50:43;5.22;;;3.63;;
36923;SDS011;22841;50.252;18.688;2022-08-01T12:53:11;5.03;;;3.22;;
36923;SDS011;22841;50.252;18.688;2022-08-01T12:55:43;6.00;;;3.65;;
36923;SDS011;22841;50.252;18.688;2022-08-01T12:58:14;9.65;;;3.65;;
36923;SDS011;22841;50.252;18.688;2022-08-01T13:00:43;3.85;;;3.40;;
36923;SDS011;22841;50.252;18.688;2022-08-01T13:03:11;5.60;;;3.42;;
36923;SDS011;22841;50.252;18.688;2022-08-01T13:05:55;4.28;;;3.20;;
36923;SDS011;22841;50.252;18.688;2022-08-01T13:08:23;5.22;;;3.35;;
36923;SDS011;22841;50.252;18.688;2022-08-01T13:11:00;8.38;;;3.38;;
36923;SDS011;22841;50.252;18.688;2022-08-01T13:13:38;9.07;;;3.80;;
36923;SDS011;22841;50.252;18.688;2022-08-01T13:16:25;6.78;;;3.83;;
36923;SDS011;22841;50.252;18.688;2022-08-01T13:18:52;7.93;;;3.50;;
36923;SDS011;22841;50.252;18.688;2022-08-01T13:21:21;5.78;;;3.70;;
36923;SDS011;22841;50.252;18.688;2022-08-01T13:26:44;4.70;;;3.75;;
36923;SDS011;22841;50.252;18.688;2022-08-01T13:29:12;5.95;;;3.55;;
36923;SDS011;22841;50.252;18.688;2022-08-01T13:31:42;5.80;;;4.13;;
36923;SDS011;22841;50.252;18.688;2022-08-01T13:34:08;5.95;;;4.22;;
36923;SDS011;22841;50.252;18.688;2022-08-01T13:36:35;6.57;;;3.47;;
36923;SDS011;22841;50.252;18.688;2022-08-01T13:39:03;6.15;;;3.90;;
36923;SDS011;22841;50.252;18.688;2022-08-01T13:41:49;8.93;;;4.60;;
36923;SDS011;22841;50.252;18.688;2022-08-01T13:44:16;8.68;;;4.22;;
36923;SDS011;22841;50.252;18.688;2022-08-01T13:46:42;7.22;;;4.30;;
36923;SDS011;22841;50.252;18.688;2022-08-01T13:49:10;6.35;;;3.95;;
36923;SDS011;22841;50.252;18.688;2022-08-01T13:51:37;10.48;;;4.22;;
36923;SDS011;22841;50.252;18.688;2022-08-01T13:54:04;5.60;;;3.83;;
36923;SDS011;22841;50.252;18.688;2022-08-01T13:56:31;7.35;;;2.97;;
36923;SDS011;22841;50.252;18.688;2022-08-01T13:58:57;5.97;;;3.67;;
36923;SDS011;22841;50.252;18.688;2022-08-01T14:01:24;8.00;;;3.55;;
36923;SDS011;22841;50.252;18.688;2022-08-01T14:03:50;9.25;;;3.55;;
36923;SDS011;22841;50.252;18.688;2022-08-01T14:06:17;6.18;;;3.38;;
36923;SDS011;22841;50.252;18.688;2022-08-01T14:08:44;5.05;;;3.70;;
36923;SDS011;22841;50.252;18.688;2022-08-01T14:11:10;4.85;;;3.33;;
36923;SDS011;22841;50.252;18.688;2022-08-01T14:13:37;8.98;;;4.18;;
36923;SDS011;22841;50.252;18.688;2022-08-01T14:16:07;5.72;;;3.40;;
36923;SDS011;22841;50.252;18.688;2022-08-01T14:18:33;6.00;;;4.10;;
36923;SDS011;22841;50.252;18.688;2022-08-01T14:20:59;5.47;;;4.88;;
36923;SDS011;22841;50.252;18.688;2022-08-01T14:23:25;14.68;;;4.72;;
36923;SDS011;22841;50.252;18.688;2022-08-01T14:25:52;9.77;;;5.28;;
36923;SDS011;22841;50.252;18.688;2022-08-01T14:28:18;6.20;;;4.80;;
36923;SDS011;22841;50.252;18.688;2022-08-01T14:30:44;4.65;;;4.25;;
36923;SDS011;22841;50.252;18.688;2022-08-01T14:33:11;8.05;;;4.22;;
36923;SDS011;22841;50.252;18.688;2022-08-01T14:35:39;9.45;;;4.72;;
36923;SDS011;22841;50.252;18.688;2022-08-01T14:38:07;6.40;;;4.30;;
36923;SDS011;22841;50.252;18.688;2022-08-01T14:40:34;8.63;;;4.45;;
36923;SDS011;22841;50.252;18.688;2022-08-01T14:43:00;6.32;;;4.30;;
36923;SDS011;22841;50.252;18.688;2022-08-01T14:45:27;8.65;;;4.95;;
36923;SDS011;22841;50.252;18.688;2022-08-01T14:47:54;7.85;;;3.65;;
36923;SDS011;22841;50.252;18.688;2022-08-01T14:50:20;8.60;;;4.10;;
36923;SDS011;22841;50.252;18.688;2022-08-01T14:52:46;4.95;;;4.20;;
36923;SDS011;22841;50.252;18.688;2022-08-01T14:55:12;7.07;;;4.00;;
36923;SDS011;22841;50.252;18.688;2022-08-01T14:57:39;8.68;;;4.60;;
36923;SDS011;22841;50.252;18.688;2022-08-01T15:00:06;8.32;;;4.57;;
36923;SDS011;22841;50.252;18.688;2022-08-01T15:02:38;6.13;;;3.78;;
36923;SDS011;22841;50.252;18.688;2022-08-01T15:05:05;8.88;;;4.13;;
36923;SDS011;22841;50.252;18.688;2022-08-01T15:07:31;6.32;;;4.38;;
36923;SDS011;22841;50.252;18.688;2022-08-01T15:09:57;5.15;;;4.25;;